This is the latest recevied weather packets stored in our database for station/object EA3CH. If no packets are shown the sender has not sent any weather packets the latest 10 day(s).
| Time | Temp. | Humidity | Pressure | Rain* | Wind** | Luminosity | Snow |
|---|---|---|---|---|---|---|---|
| 1787547606 | 15.56° C | 86% | 1016.4 hPa | 0 mm | - | 0 W/m² | - |
| 1787547603 | 15.56° C | 100% | 1016.6 hPa | 0 mm | - | 0 W/m² | - |
| 1787546705 | 16.11° C | 100% | 1016.5 hPa | 0 mm | - | 0 W/m² | - |
| 1787545803 | 16.11° C | 100% | 1016.7 hPa | 0 mm | - | 0 W/m² | - |
| 1787544905 | 16.67° C | 86% | 1016.4 hPa | 0 mm | - | 0 W/m² | - |
| 1787544904 | 16.67° C | 100% | 1016.6 hPa | 0 mm | - | 0 W/m² | - |
| 1787544005 | 16.67° C | 85% | 1016.3 hPa | 0 mm | - | 0 W/m² | - |
| 1787544003 | 16.67° C | 100% | 1016.5 hPa | 0 mm | - | 0 W/m² | - |
| 1787543104 | 16.67° C | 100% | 1016.6 hPa | 0 mm | - | 0 W/m² | - |
| 1787542206 | 17.22° C | 85% | 1016.6 hPa | 0 mm | - | 0 W/m² | - |
| 1787542204 | 17.22° C | 100% | 1016.7 hPa | 0 mm | - | 0 W/m² | - |
| 1787541306 | 17.22° C | 85% | 1016.8 hPa | 0 mm | - | 0 W/m² | - |
| 1787541303 | 16.67° C | 100% | 1017 hPa | 0 mm | - | 0 W/m² | - |
| 1787540403 | 16.67° C | 100% | 1017.1 hPa | 0 mm | - | 0 W/m² | - |
| 1787539504 | 17.22° C | 100% | 1017.1 hPa | 0 mm | - | 0 W/m² | - |
| 1787538605 | 17.22° C | 85% | 1017 hPa | 0 mm | - | 0 W/m² | - |
| 1787538604 | 17.22° C | 100% | 1017.2 hPa | 0 mm | - | 0 W/m² | - |
| 1787537705 | 17.22° C | 85% | 1017 hPa | 0 mm | - | 0 W/m² | - |
| 1787536806 | 17.78° C | 86% | 1017 hPa | 0 mm | - | 0 W/m² | - |
| 1787536804 | 17.22° C | 100% | 1017.2 hPa | 0 mm | - | 0 W/m² | - |
| 1787535904 | 17.22° C | 100% | 1017.1 hPa | 0 mm | - | 0 W/m² | - |
| 1787535004 | 17.78° C | 100% | 1017.3 hPa | 0 mm | - | 0 W/m² | - |
| 1787534105 | 17.78° C | 87% | 1017.5 hPa | 0 mm | - | 0 W/m² | - |
| 1787534104 | 17.78° C | 100% | 1017.6 hPa | 0 mm | - | 0 W/m² | - |
| 1787533205 | 18.33° C | 87% | 1017.7 hPa | 0 mm | - | 0 W/m² | - |
* Rain latest hour (hover to see other rain measurements)
** Current wind speed in m/s (hover to see current wind gust speed)